Archival Weather

John F Kennedy Intl

New York, New York (KJFK)

Report from: Thursday, September 21, 2023 8:51 AM EDT
Current time: Sunday, February 25, 2024 5:38 PM EST

Current weather – Weather history – Daily summaries
Weather forecast

Temperature16.7°C (62.1°F)
Dew point8.9°C (48.0°F)
Winds 10 kts (5.1 m/s, 11.5 mph) North (360°)
Visibility10 mi. (16.1 km)
Clouds Few clouds 25,000 ft. (7,620 m)
Altimeter30.27 in.Hg (1025 mB)
Relative humidity60 %
Density altitude-35 ft. (-11 m)
Sea-level pressure102.5 kPa (1025 mB, 30.27 in.Hg)
Remarks Automated weather observing station with precipitation discriminator
Flight conditions Visual Meteorological Conditions
Raw dataKJFK 211251Z 36010KT 10SM FEW250 17/09 A3027 RMK AO2 SLP251 T01670089
An error has occurred. This application may no longer respond until reloaded. Reload 🗙